Time;durP1;ratioP1;P1;durP2;ratioP2;P2;SDS_P1;SDS_P2;PMS_P1;PMS_P2;Temp;Humidity;BMP_temperature;BMP_pressure;BME280_temperature;BME280_humidity;BME280_pressure;Samples;Min_cycle;Max_cycle;Signal;HPM_P1;HPM_P2
2021/06/10 00:02:11;;;;;;;13.10;10.00;;;19.10;99.90;;;;;;5096837;28;20828;-79
2021/06/10 00:04:38;;;;;;;10.60;9.60;;;19.00;99.90;;;;;;5092128;28;20449;-83
2021/06/10 00:07:06;;;;;;;8.83;8.00;;;19.00;99.90;;;;;;5102521;28;20857;-80
2021/06/10 00:09:33;;;;;;;9.93;8.93;;;19.00;99.90;;;;;;5110021;28;20436;-81
2021/06/10 00:11:59;;;;;;;9.10;8.30;;;19.00;99.90;;;;;;5110663;28;20437;-81
2021/06/10 00:14:27;;;;;;;8.40;7.70;;;19.00;99.90;;;;;;5123321;27;20450;-82
2021/06/10 00:16:53;;;;;;;9.00;8.30;;;19.00;99.90;;;;;;5110512;28;20468;-78
2021/06/10 00:19:20;;;;;;;9.47;8.63;;;18.90;99.90;;;;;;5110158;28;20476;-80
2021/06/10 00:21:47;;;;;;;8.20;7.50;;;18.90;99.90;;;;;;5112147;28;20475;-81
2021/06/10 00:24:15;;;;;;;9.70;8.70;;;18.90;99.90;;;;;;5106580;28;20466;-80
2021/06/10 00:26:41;;;;;;;9.07;8.17;;;18.90;99.90;;;;;;5108353;28;20439;-82
2021/06/10 00:29:08;;;;;;;9.00;8.20;;;18.90;99.90;;;;;;5108549;28;20433;-78
2021/06/10 00:31:35;;;;;;;8.50;7.73;;;18.80;99.90;;;;;;5111855;28;20791;-80
2021/06/10 00:34:02;;;;;;;8.90;8.10;;;18.80;99.90;;;;;;5111976;28;20441;-81
2021/06/10 00:36:28;;;;;;;9.03;8.33;;;18.70;99.90;;;;;;5109759;28;20470;-83
2021/06/10 00:38:55;;;;;;;8.57;7.77;;;18.70;99.90;;;;;;5113628;27;20802;-82
2021/06/10 00:41:23;;;;;;;8.47;7.77;;;18.70;99.90;;;;;;5100919;28;21111;-81
2021/06/10 00:43:49;;;;;;;8.67;7.87;;;18.70;99.90;;;;;;5103020;28;20964;-82
2021/06/10 00:46:16;;;;;;;8.57;7.87;;;18.70;99.90;;;;;;5110748;28;20481;-81
2021/06/10 00:48:43;;;;;;;8.07;7.37;;;18.60;99.90;;;;;;5108012;28;20521;-81
2021/06/10 00:51:10;;;;;;;10.70;8.60;;;18.60;99.90;;;;;;5111950;28;20412;-80
2021/06/10 00:53:37;;;;;;;9.23;8.37;;;18.50;99.90;;;;;;5112753;27;20504;-81
2021/06/10 00:56:06;;;;;;;9.40;8.60;;;18.50;99.90;;;;;;5098142;28;20476;-80
2021/06/10 00:58:34;;;;;;;9.47;8.67;;;18.50;99.90;;;;;;5109820;28;20435;-80
2021/06/10 01:01:01;;;;;;;10.00;8.80;;;18.40;99.90;;;;;;5108111;28;20467;-79
2021/06/10 01:03:28;;;;;;;8.30;7.60;;;18.30;99.90;;;;;;5104149;28;20551;-78
2021/06/10 01:05:59;;;;;;;8.77;8.00;;;18.30;99.90;;;;;;5109662;28;21061;-82
2021/06/10 01:08:37;;;;;;;9.77;8.77;;;18.30;99.90;;;;;;5108894;28;20460;-79
2021/06/10 01:11:13;;;;;;;8.17;7.53;;;18.20;99.90;;;;;;5102245;28;20424;-81
2021/06/10 01:13:54;;;;;;;9.20;7.80;;;18.20;99.90;;;;;;5090340;28;20455;-79
2021/06/10 01:16:24;;;;;;;9.00;7.73;;;18.20;99.90;;;;;;5092215;28;20489;-80
2021/06/10 01:18:52;;;;;;;7.30;6.70;;;18.20;99.90;;;;;;5105195;28;20826;-80
2021/06/10 01:21:22;;;;;;;7.40;6.70;;;18.20;99.90;;;;;;5122408;28;20481;-80
2021/06/10 01:24:08;;;;;;;7.47;6.77;;;18.10;99.90;;;;;;5111047;28;20452;-80
2021/06/10 01:26:39;;;;;;;7.43;6.80;;;18.20;99.90;;;;;;5107137;28;22285;-81
2021/06/10 01:29:13;;;;;;;6.30;5.70;;;18.20;99.90;;;;;;5104211;28;20460;-78
2021/06/10 01:31:41;;;;;;;7.20;6.50;;;18.10;99.90;;;;;;5096695;28;20429;-81
2021/06/10 01:34:09;;;;;;;6.80;6.20;;;18.20;99.90;;;;;;5102982;28;20459;-82
2021/06/10 01:36:39;;;;;;;6.67;6.17;;;18.20;99.90;;;;;;5112790;28;21059;-80
2021/06/10 01:39:08;;;;;;;7.93;6.53;;;18.10;99.90;;;;;;5109100;28;20960;-83
2021/06/10 01:41:36;;;;;;;7.20;6.17;;;18.10;99.90;;;;;;5096658;28;20453;-82
2021/06/10 01:44:04;;;;;;;6.73;6.13;;;18.10;99.90;;;;;;5108574;28;20426;-80
2021/06/10 01:46:33;;;;;;;7.73;6.93;;;18.10;99.90;;;;;;5106001;28;20501;-81
2021/06/10 01:49:01;;;;;;;8.57;6.80;;;18.00;99.90;;;;;;5105202;28;20464;-78
2021/06/10 01:51:30;;;;;;;7.10;6.50;;;18.00;99.90;;;;;;5111439;28;20446;-79
2021/06/10 01:53:59;;;;;;;12.03;7.77;;;18.00;99.90;;;;;;5109147;28;20445;-81
2021/06/10 01:56:27;;;;;;;7.83;7.03;;;17.90;99.90;;;;;;5095798;28;20449;-82
2021/06/10 01:58:54;;;;;;;9.50;6.63;;;17.90;99.90;;;;;;5107592;28;20465;-80
2021/06/10 02:01:23;;;;;;;8.97;7.20;;;17.90;99.90;;;;;;5113665;28;20452;-80
2021/06/10 02:03:53;;;;;;;9.13;8.13;;;17.90;99.90;;;;;;5103572;28;20452;-78
2021/06/10 02:06:21;;;;;;;10.03;7.33;;;17.90;99.90;;;;;;5113264;28;20559;-79
2021/06/10 02:08:50;;;;;;;16.33;7.30;;;17.80;99.90;;;;;;5105316;28;20426;-80
2021/06/10 02:11:17;;;;;;;9.53;8.30;;;17.70;99.90;;;;;;5105648;28;20919;-79
2021/06/10 02:13:45;;;;;;;10.40;7.30;;;17.70;99.90;;;;;;5106181;28;20422;-80
2021/06/10 02:16:13;;;;;;;9.80;7.80;;;17.70;99.90;;;;;;5103486;28;20446;-79
2021/06/10 02:18:41;;;;;;;9.17;7.90;;;17.70;99.90;;;;;;5109672;28;20426;-78
2021/06/10 02:21:11;;;;;;;10.70;8.80;;;17.70;99.90;;;;;;5118679;28;20516;-80
2021/06/10 02:23:38;;;;;;;9.63;8.63;;;17.70;99.90;;;;;;5097418;28;20451;-81
2021/06/10 02:26:06;;;;;;;13.17;8.83;;;17.70;99.90;;;;;;5107819;28;20446;-80
2021/06/10 02:28:34;;;;;;;11.53;8.30;;;17.60;99.90;;;;;;5111733;28;20416;-80
2021/06/10 02:31:01;;;;;;;9.80;8.20;;;17.60;99.90;;;;;;5114158;28;20423;-80
2021/06/10 02:33:28;;;;;;;13.37;8.43;;;17.60;99.90;;;;;;5113565;28;20820;-79
2021/06/10 02:35:54;;;;;;;14.00;8.60;;;17.60;99.90;;;;;;5112734;28;20467;-80
2021/06/10 02:38:25;;;;;;;11.20;9.20;;;17.50;99.90;;;;;;5110623;28;20484;-81
2021/06/10 02:40:53;;;;;;;12.60;9.17;;;17.50;99.90;;;;;;5102168;28;21348;-79
2021/06/10 02:43:20;;;;;;;9.90;8.10;;;17.50;99.90;;;;;;5098091;28;20432;-79
2021/06/10 02:45:49;;;;;;;9.60;8.60;;;17.50;99.90;;;;;;5111871;28;20876;-82
2021/06/10 02:48:17;;;;;;;10.97;8.87;;;17.50;99.90;;;;;;5113098;28;20491;-79
2021/06/10 02:50:45;;;;;;;11.47;8.90;;;17.50;99.90;;;;;;5112194;27;20460;-80
2021/06/10 02:53:15;;;;;;;11.10;9.50;;;17.40;99.90;;;;;;5093246;28;20752;-80
2021/06/10 02:55:44;;;;;;;9.37;8.30;;;17.40;99.90;;;;;;5106047;28;20474;-80
2021/06/10 02:58:13;;;;;;;11.00;9.00;;;17.40;99.90;;;;;;5129673;27;20533;-81
2021/06/10 03:00:40;;;;;;;8.77;7.67;;;17.40;99.90;;;;;;5114401;28;20453;-81
2021/06/10 03:03:10;;;;;;;11.77;8.77;;;17.40;99.90;;;;;;5111882;28;20433;-78
2021/06/10 03:05:38;;;;;;;10.10;8.70;;;17.40;99.90;;;;;;5103710;28;20470;-80
2021/06/10 03:08:04;;;;;;;9.17;8.10;;;17.40;99.90;;;;;;5110147;28;20430;-84
2021/06/10 03:10:32;;;;;;;10.77;8.63;;;17.40;99.90;;;;;;5113149;28;20917;-80
2021/06/10 03:13:01;;;;;;;11.47;8.77;;;17.30;99.90;;;;;;5102107;28;20429;-80
2021/06/10 03:15:29;;;;;;;10.63;9.53;;;17.30;99.90;;;;;;5111635;28;20445;-80
2021/06/10 03:17:58;;;;;;;10.83;9.73;;;17.30;99.90;;;;;;5103723;28;20454;-78
2021/06/10 03:20:25;;;;;;;11.70;9.53;;;17.30;99.90;;;;;;5103892;28;20466;-81
2021/06/10 03:22:53;;;;;;;10.40;9.20;;;17.20;99.90;;;;;;5110554;28;20427;-80
2021/06/10 03:25:22;;;;;;;10.23;9.33;;;17.20;99.90;;;;;;5106219;28;20441;-80
2021/06/10 03:27:49;;;;;;;11.33;10.23;;;17.20;99.90;;;;;;5103030;28;20462;-81
2021/06/10 03:30:18;;;;;;;11.13;10.10;;;17.20;99.90;;;;;;5114006;28;20438;-80
2021/06/10 03:32:45;;;;;;;9.90;8.90;;;17.20;99.90;;;;;;5119571;27;21712;-82
2021/06/10 03:35:13;;;;;;;10.60;9.60;;;17.20;99.90;;;;;;5105007;28;20437;-79
2021/06/10 03:37:41;;;;;;;10.23;9.23;;;17.10;99.90;;;;;;5106963;28;20932;-80
2021/06/10 03:40:10;;;;;;;11.50;10.40;;;17.10;99.90;;;;;;5114773;28;20454;-78
2021/06/10 03:42:37;;;;;;;11.37;10.30;;;17.10;99.90;;;;;;5104990;28;20494;-78
2021/06/10 03:45:04;;;;;;;11.33;10.23;;;17.10;99.90;;;;;;5107567;28;20970;-80
2021/06/10 03:47:32;;;;;;;11.30;10.20;;;17.10;99.90;;;;;;5112479;28;20515;-78
2021/06/10 03:49:59;;;;;;;11.53;10.43;;;17.00;99.90;;;;;;5103106;28;20451;-80
2021/06/10 03:52:27;;;;;;;11.70;10.60;;;17.00;99.90;;;;;;5103185;28;20429;-81
2021/06/10 03:54:56;;;;;;;11.43;10.33;;;17.00;99.90;;;;;;5123038;27;20443;-80
2021/06/10 03:57:22;;;;;;;10.87;9.87;;;17.00;99.90;;;;;;5102061;28;20498;-80
2021/06/10 03:59:49;;;;;;;10.87;9.80;;;17.00;99.90;;;;;;5110493;28;20427;-78
2021/06/10 04:02:15;;;;;;;11.00;10.00;;;17.00;99.90;;;;;;5113133;28;20486;-79
2021/06/10 04:04:44;;;;;;;11.00;9.43;;;17.00;99.90;;;;;;5099122;28;20847;-79
2021/06/10 04:07:11;;;;;;;11.60;10.47;;;17.00;99.90;;;;;;5103865;28;20448;-78
2021/06/10 04:09:38;;;;;;;12.47;10.60;;;17.10;99.90;;;;;;5114439;28;20507;-81
2021/06/10 04:12:07;;;;;;;11.37;10.17;;;17.10;99.90;;;;;;5112682;28;20448;-80
2021/06/10 04:14:33;;;;;;;11.63;10.50;;;17.10;99.90;;;;;;5107904;28;20968;-79
2021/06/10 04:17:00;;;;;;;11.00;10.00;;;17.10;99.90;;;;;;5105731;28;20470;-79
2021/06/10 04:19:26;;;;;;;12.17;10.87;;;17.10;99.90;;;;;;5104853;28;20483;-80
2021/06/10 04:21:54;;;;;;;12.83;11.00;;;17.00;99.90;;;;;;5104253;28;20457;-79
2021/06/10 04:24:21;;;;;;;12.40;11.30;;;17.00;99.90;;;;;;5112701;28;20432;-80
2021/06/10 04:26:48;;;;;;;11.50;10.50;;;17.00;99.90;;;;;;5107248;28;20478;-79
2021/06/10 04:29:14;;;;;;;13.07;11.33;;;17.00;99.90;;;;;;5097913;28;20916;-79
2021/06/10 04:31:41;;;;;;;11.70;10.60;;;17.00;99.90;;;;;;5110594;28;20455;-80
2021/06/10 04:34:08;;;;;;;12.03;10.83;;;17.00;99.90;;;;;;5114765;28;20828;-79
2021/06/10 04:36:34;;;;;;;13.33;11.73;;;17.00;99.90;;;;;;5103133;28;20441;-79
2021/06/10 04:39:03;;;;;;;11.43;9.93;;;17.00;99.90;;;;;;5103977;28;20813;-79
2021/06/10 04:41:30;;;;;;;11.60;10.60;;;17.10;99.90;;;;;;5108406;28;20963;-79
2021/06/10 04:43:58;;;;;;;10.73;9.63;;;17.10;99.90;;;;;;5107761;28;20921;-78
2021/06/10 04:46:25;;;;;;;10.77;9.70;;;17.10;99.90;;;;;;5094465;28;20555;-83
2021/06/10 04:48:52;;;;;;;14.47;9.73;;;17.10;99.90;;;;;;5091766;28;20797;-81
2021/06/10 04:51:19;;;;;;;13.63;9.57;;;17.20;99.90;;;;;;5092556;28;20510;-78
2021/06/10 04:53:46;;;;;;;9.00;8.20;;;17.20;99.90;;;;;;5102582;28;21022;-78
2021/06/10 04:56:17;;;;;;;9.57;8.73;;;17.30;99.90;;;;;;5107221;28;20454;-81
2021/06/10 04:58:44;;;;;;;9.17;8.37;;;17.30;99.90;;;;;;5102531;28;20461;-79
2021/06/10 05:01:10;;;;;;;8.17;7.47;;;17.40;99.90;;;;;;5111448;28;20474;-79
2021/06/10 05:03:37;;;;;;;8.80;8.00;;;17.50;99.90;;;;;;5111067;28;20518;-79
2021/06/10 05:06:05;;;;;;;7.73;7.03;;;17.50;99.90;;;;;;5098055;28;20467;-80
2021/06/10 05:08:32;;;;;;;8.43;7.67;;;17.60;99.90;;;;;;5105504;27;20454;-81
2021/06/10 05:10:59;;;;;;;9.77;7.20;;;17.70;99.90;;;;;;5107196;28;20455;-79
2021/06/10 05:13:27;;;;;;;7.87;7.10;;;17.80;99.90;;;;;;5110196;28;20803;-82
2021/06/10 05:15:53;;;;;;;8.20;7.37;;;17.80;99.90;;;;;;5098265;28;20859;-80
2021/06/10 05:18:20;;;;;;;9.33;8.37;;;17.90;99.90;;;;;;5110597;28;20511;-82
2021/06/10 05:20:46;;;;;;;9.53;8.07;;;17.90;99.90;;;;;;5105151;28;21930;-80
2021/06/10 05:23:13;;;;;;;9.40;8.50;;;18.00;99.90;;;;;;5105198;28;20461;-81
2021/06/10 05:25:39;;;;;;;9.03;7.90;;;18.10;99.90;;;;;;5098202;28;20677;-80
2021/06/10 05:28:06;;;;;;;9.07;8.17;;;18.20;99.90;;;;;;5102425;28;20462;-81
2021/06/10 05:30:34;;;;;;;12.20;9.17;;;18.20;99.90;;;;;;5101888;28;20465;-83
2021/06/10 05:33:01;;;;;;;9.87;8.50;;;18.30;99.90;;;;;;5107438;28;20443;-84
2021/06/10 05:35:27;;;;;;;9.50;8.50;;;18.40;99.90;;;;;;5105899;28;20453;-84
2021/06/10 05:37:54;;;;;;;11.60;8.63;;;18.60;99.90;;;;;;5097740;28;20454;-79
2021/06/10 05:40:20;;;;;;;9.70;8.70;;;18.70;99.90;;;;;;5094971;28;20504;-80
2021/06/10 05:42:47;;;;;;;9.00;7.97;;;18.90;99.90;;;;;;5108073;28;20474;-80
2021/06/10 05:45:14;;;;;;;8.63;7.90;;;19.00;99.90;;;;;;5110796;28;20450;-78
2021/06/10 05:47:42;;;;;;;9.20;8.30;;;19.20;99.90;;;;;;5108161;28;20487;-77
2021/06/10 05:50:09;;;;;;;10.50;8.10;;;19.30;99.90;;;;;;5099293;28;20462;-79
2021/06/10 05:52:36;;;;;;;8.63;7.83;;;19.30;99.90;;;;;;5109787;28;20458;-83
2021/06/10 05:55:03;;;;;;;8.90;7.80;;;19.50;99.90;;;;;;5105253;28;20453;-82
2021/06/10 05:57:30;;;;;;;9.67;8.30;;;19.60;99.90;;;;;;5095641;28;20997;-80
2021/06/10 05:59:56;;;;;;;9.03;8.10;;;19.70;99.90;;;;;;5107055;28;20466;-82
2021/06/10 06:02:23;;;;;;;10.10;9.10;;;19.80;99.90;;;;;;5103366;27;20489;-80
2021/06/10 06:04:50;;;;;;;8.60;7.80;;;19.90;99.90;;;;;;5095884;28;20446;-81
2021/06/10 06:07:18;;;;;;;9.80;7.60;;;20.10;99.90;;;;;;5112112;28;20472;-82
2021/06/10 06:09:44;;;;;;;10.63;7.20;;;20.40;99.90;;;;;;5113510;28;20519;-81
2021/06/10 06:12:12;;;;;;;8.87;7.17;;;20.60;99.90;;;;;;5107215;28;20454;-83
2021/06/10 06:14:40;;;;;;;8.83;7.03;;;20.90;99.90;;;;;;5113862;28;20505;-80
2021/06/10 06:17:09;;;;;;;9.50;7.30;;;21.10;99.90;;;;;;5112709;28;20505;-78
2021/06/10 06:19:36;;;;;;;13.63;8.10;;;21.10;99.90;;;;;;5110474;28;20473;-80
2021/06/10 06:22:05;;;;;;;9.37;7.30;;;21.10;99.90;;;;;;5104904;27;20481;-80
2021/06/10 06:24:32;;;;;;;8.70;6.93;;;21.30;99.90;;;;;;5107429;28;20468;-83
2021/06/10 06:26:59;;;;;;;14.27;6.67;;;21.80;99.90;;;;;;5106069;27;20472;-81
2021/06/10 06:29:25;;;;;;;7.97;6.90;;;22.00;99.90;;;;;;5105577;28;20450;-79
2021/06/10 06:31:52;;;;;;;10.33;6.40;;;22.30;99.90;;;;;;5113853;28;20454;-80
2021/06/10 06:34:19;;;;;;;8.90;7.20;;;22.40;99.90;;;;;;5103962;28;20446;-79
2021/06/10 06:36:46;;;;;;;11.20;7.00;;;22.80;99.90;;;;;;5112597;27;20844;-78
2021/06/10 06:39:14;;;;;;;9.30;7.73;;;22.90;99.90;;;;;;5111815;28;20461;-79
2021/06/10 06:41:40;;;;;;;10.73;7.97;;;22.80;99.90;;;;;;5104885;28;20513;-80
2021/06/10 06:44:08;;;;;;;13.27;7.40;;;22.90;99.90;;;;;;5111047;28;20955;-80
2021/06/10 06:46:34;;;;;;;9.20;6.53;;;23.10;99.90;;;;;;5115050;28;20470;-78
2021/06/10 06:49:04;;;;;;;8.23;7.43;;;23.40;99.90;;;;;;5097317;27;20470;-79
2021/06/10 06:51:31;;;;;;;12.23;7.10;;;23.80;99.90;;;;;;5106272;28;20454;-79
2021/06/10 06:53:57;;;;;;;11.00;6.97;;;23.90;99.90;;;;;;5111840;28;20835;-81
2021/06/10 06:56:25;;;;;;;7.87;6.40;;;24.20;99.90;;;;;;5102863;28;20462;-82
2021/06/10 06:58:53;;;;;;;15.80;7.50;;;24.60;99.90;;;;;;5102563;28;20450;-80
2021/06/10 07:01:20;;;;;;;9.80;6.80;;;24.70;99.90;;;;;;5105623;28;20484;-79
2021/06/10 07:03:46;;;;;;;9.50;5.67;;;24.80;99.90;;;;;;5099118;27;20876;-80
2021/06/10 07:06:13;;;;;;;7.63;5.30;;;25.20;99.90;;;;;;5108398;28;20562;-79
2021/06/10 07:08:40;;;;;;;7.90;5.73;;;25.70;99.90;;;;;;5109872;28;20795;-78
2021/06/10 07:11:06;;;;;;;10.43;6.47;;;26.10;99.90;;;;;;5103267;28;20464;-79
2021/06/10 07:13:34;;;;;;;12.67;6.70;;;26.40;99.90;;;;;;5104367;28;20510;-78
2021/06/10 07:16:01;;;;;;;8.57;6.70;;;26.70;99.90;;;;;;5105968;28;20482;-79
2021/06/10 07:18:28;;;;;;;10.73;7.70;;;27.10;99.90;;;;;;5105944;28;21019;-79
2021/06/10 07:20:54;;;;;;;7.83;6.87;;;27.50;99.90;;;;;;5100757;27;20474;-78
2021/06/10 07:23:21;;;;;;;9.03;7.13;;;27.90;99.90;;;;;;5096995;28;20553;-79
2021/06/10 07:25:48;;;;;;;9.33;6.43;;;28.20;99.90;;;;;;5095941;28;20462;-79
2021/06/10 07:28:14;;;;;;;12.40;6.47;;;28.60;99.90;;;;;;5099323;28;20985;-78
2021/06/10 07:30:42;;;;;;;8.83;6.00;;;28.90;99.90;;;;;;5111432;27;20537;-79
2021/06/10 07:33:09;;;;;;;10.90;5.87;;;29.00;99.90;;;;;;5098868;27;20466;-79
2021/06/10 07:35:36;;;;;;;8.97;6.90;;;29.00;99.90;;;;;;5104575;28;20475;-79
2021/06/10 07:38:04;;;;;;;11.93;6.33;;;29.40;99.90;;;;;;5105449;28;20864;-80
2021/06/10 07:40:32;;;;;;;8.50;6.20;;;29.70;99.90;;;;;;5099517;27;20446;-79
2021/06/10 07:42:59;;;;;;;7.90;5.80;;;30.00;99.90;;;;;;5096739;28;20478;-76
2021/06/10 07:45:27;;;;;;;7.40;5.17;;;30.20;99.90;;;;;;5093762;28;20471;-78
2021/06/10 07:47:56;;;;;;;7.40;6.67;;;30.70;99.90;;;;;;5106637;28;20447;-79
2021/06/10 07:50:23;;;;;;;6.97;6.37;;;30.90;99.90;;;;;;5099354;28;20465;-79
2021/06/10 07:52:50;;;;;;;6.47;5.30;;;30.90;99.90;;;;;;5099576;28;20438;-78
2021/06/10 07:55:19;;;;;;;5.37;4.87;;;31.20;99.90;;;;;;5095824;28;20484;-81
2021/06/10 07:57:46;;;;;;;6.73;6.07;;;31.60;99.90;;;;;;5100424;28;20454;-78
2021/06/10 08:00:13;;;;;;;5.33;4.87;;;31.60;99.90;;;;;;5097781;27;21244;-76
2021/06/10 08:02:40;;;;;;;6.30;5.20;;;31.00;99.90;;;;;;5102099;27;20481;-77
2021/06/10 08:05:10;;;;;;;6.63;4.83;;;30.60;99.90;;;;;;5109393;28;20959;-77
2021/06/10 08:07:37;;;;;;;5.70;3.90;;;31.10;99.90;;;;;;5097154;28;20456;-77
2021/06/10 08:10:04;;;;;;;5.30;4.80;;;31.90;99.90;;;;;;5109310;28;20454;-77
2021/06/10 08:12:31;;;;;;;5.13;4.67;;;31.70;99.90;;;;;;5106741;27;20465;-76
2021/06/10 08:14:57;;;;;;;5.73;4.00;;;32.00;99.90;;;;;;5099252;27;20450;-77
2021/06/10 08:17:24;;;;;;;5.07;4.57;;;32.20;99.90;;;;;;5106325;28;20478;-78
2021/06/10 08:19:51;;;;;;;4.50;3.90;;;32.70;99.90;;;;;;5108320;28;20858;-77
2021/06/10 08:22:19;;;;;;;5.07;4.10;;;32.90;99.90;;;;;;5101721;28;20492;-78
2021/06/10 08:24:45;;;;;;;5.83;4.27;;;32.10;99.90;;;;;;5108683;28;20663;-78
2021/06/10 08:27:12;;;;;;;5.37;4.00;;;32.00;99.90;;;;;;5111906;28;20470;-77
2021/06/10 08:29:39;;;;;;;4.83;4.13;;;32.50;99.90;;;;;;5108938;27;20476;-77
2021/06/10 08:32:06;;;;;;;5.33;3.27;;;32.80;99.90;;;;;;5111981;27;20945;-78
2021/06/10 08:34:33;;;;;;;4.13;3.73;;;33.00;99.90;;;;;;5103801;28;20454;-78
2021/06/10 08:37:00;;;;;;;4.30;4.00;;;31.90;99.90;;;;;;5097982;27;20470;-78
2021/06/10 08:39:28;;;;;;;5.43;3.83;;;31.40;99.90;;;;;;5096597;28;20465;-76
2021/06/10 08:41:56;;;;;;;8.50;3.90;;;31.30;99.90;;;;;;5109553;28;20486;-77
2021/06/10 08:44:24;;;;;;;4.97;3.20;;;31.30;99.90;;;;;;5107161;28;20447;-77
2021/06/10 08:46:51;;;;;;;5.87;4.10;;;31.10;99.90;;;;;;5091985;28;20478;-78
2021/06/10 08:49:18;;;;;;;4.10;3.50;;;31.40;99.90;;;;;;5096095;27;20953;-78
2021/06/10 08:51:45;;;;;;;4.53;3.60;;;32.30;99.90;;;;;;5104058;28;20446;-78
2021/06/10 08:54:12;;;;;;;5.20;3.60;;;32.30;99.90;;;;;;5108300;28;20454;-76
2021/06/10 08:56:41;;;;;;;5.23;3.50;;;31.80;99.90;;;;;;5095864;28;20478;-77
2021/06/10 08:59:09;;;;;;;3.80;3.40;;;31.30;99.90;;;;;;5097711;28;20977;-77
2021/06/10 09:01:35;;;;;;;3.40;3.03;;;31.30;99.90;;;;;;5108124;28;20572;-80
2021/06/10 09:04:02;;;;;;;3.77;3.43;;;32.40;99.90;;;;;;5100755;28;20873;-78
2021/06/10 09:06:45;;;;;;;3.70;2.80;;;32.90;99.90;;;;;;5105602;28;20504;-80
2021/06/10 09:09:12;;;;;;;3.90;3.20;;;33.50;99.90;;;;;;5109891;28;20507;-80
2021/06/10 09:11:40;;;;;;;3.60;3.07;;;33.80;99.90;;;;;;5102487;28;20796;-80
2021/06/10 09:14:09;;;;;;;3.40;3.00;;;33.90;99.90;;;;;;5105171;28;20531;-79
2021/06/10 09:16:37;;;;;;;4.43;3.50;;;33.60;99.90;;;;;;5108946;28;20564;-79
2021/06/10 09:19:08;;;;;;;5.93;3.73;;;33.80;99.90;;;;;;5095914;28;20459;-78
2021/06/10 09:21:37;;;;;;;5.60;3.80;;;33.10;99.90;;;;;;5119718;27;20482;-79
2021/06/10 09:24:19;;;;;;;4.03;3.50;;;33.30;99.90;;;;;;5104253;28;20569;-78
2021/06/10 09:26:55;;;;;;;7.00;3.70;;;31.80;99.90;;;;;;5106726;28;20573;-79
2021/06/10 09:29:35;;;;;;;5.50;4.40;;;30.60;99.90;;;;;;5101284;28;21083;-79
2021/06/10 09:32:02;;;;;;;5.73;3.73;;;29.60;99.90;;;;;;5123405;27;20461;-79
2021/06/10 09:34:42;;;;;;;6.07;4.70;;;28.80;99.90;;;;;;5098679;28;20546;-79
2021/06/10 09:37:09;;;;;;;4.97;4.03;;;28.30;99.90;;;;;;5103118;28;20473;-79
2021/06/10 09:39:48;;;;;;;8.67;5.00;;;28.80;99.90;;;;;;5104527;27;20500;-78
2021/06/10 09:42:22;;;;;;;7.63;5.97;;;28.70;99.90;;;;;;5090871;28;20478;-81
2021/06/10 09:44:53;;;;;;;8.10;4.50;;;28.70;99.90;;;;;;5097522;28;20946;-80
2021/06/10 09:47:26;;;;;;;8.73;5.17;;;28.40;99.90;;;;;;5105443;27;20481;-80
2021/06/10 09:49:53;;;;;;;4.27;3.87;;;28.20;99.90;;;;;;5107178;27;20462;-78
2021/06/10 09:52:21;;;;;;;4.57;3.80;;;27.90;99.90;;;;;;5105776;28;20447;-78
2021/06/10 09:54:50;;;;;;;5.30;4.10;;;27.50;99.90;;;;;;5096767;27;20451;-78
2021/06/10 09:57:19;;;;;;;5.30;4.67;;;27.20;99.90;;;;;;5103223;27;20462;-79
2021/06/10 09:59:48;;;;;;;11.93;5.30;;;26.60;99.90;;;;;;5112823;28;20501;-79
2021/06/10 10:02:18;;;;;;;4.87;4.13;;;26.20;99.90;;;;;;5103089;27;20473;-80
2021/06/10 10:05:01;;;;;;;4.53;3.70;;;25.80;99.90;;;;;;5110151;27;20460;-78
2021/06/10 10:07:28;;;;;;;8.37;5.07;;;25.70;99.90;;;;;;5109925;28;20465;-80
2021/06/10 10:09:58;;;;;;;7.43;4.93;;;25.80;99.90;;;;;;5111844;28;20974;-79
2021/06/10 10:12:27;;;;;;;4.97;4.40;;;25.40;99.90;;;;;;5111623;28;20454;-79
2021/06/10 10:14:56;;;;;;;4.17;3.87;;;25.20;99.90;;;;;;5108379;28;20454;-76
2021/06/10 10:17:25;;;;;;;5.10;4.30;;;25.10;99.90;;;;;;5106542;27;20493;-80
2021/06/10 10:19:51;;;;;;;5.43;4.13;;;25.10;99.90;;;;;;5101586;28;20476;-78
2021/06/10 10:22:21;;;;;;;6.23;3.60;;;25.20;99.90;;;;;;5097391;28;20484;-76
2021/06/10 10:24:48;;;;;;;5.23;3.30;;;25.40;99.90;;;;;;5105447;28;20447;-77
2021/06/10 10:27:15;;;;;;;5.20;3.87;;;25.60;99.90;;;;;;5110250;27;20466;-78
2021/06/10 10:29:45;;;;;;;3.93;3.53;;;25.70;99.90;;;;;;5107975;28;20513;-76
2021/06/10 10:32:15;;;;;;;3.67;3.37;;;25.80;99.90;;;;;;5088408;28;20462;-78
2021/06/10 10:34:42;;;;;;;4.03;3.63;;;25.80;99.90;;;;;;5103581;28;20450;-78
2021/06/10 10:37:24;;;;;;;3.80;3.50;;;25.80;99.90;;;;;;5103897;28;20482;-79
2021/06/10 10:39:53;;;;;;;4.53;4.23;;;25.60;99.90;;;;;;5101603;28;20550;-81
2021/06/10 10:42:32;;;;;;;4.00;3.60;;;25.40;99.90;;;;;;5101399;28;20576;-78
2021/06/10 10:45:18;;;;;;;4.70;3.77;;;25.60;99.90;;;;;;5128031;27;20943;-79
2021/06/10 10:47:47;;;;;;;6.80;4.90;;;25.30;99.90;;;;;;5101502;27;20458;-80
2021/06/10 10:50:18;;;;;;;5.97;4.63;;;25.30;99.90;;;;;;5110790;28;20547;-79
2021/06/10 10:52:54;;;;;;;6.07;4.53;;;25.30;99.90;;;;;;5107471;28;20484;-80
2021/06/10 10:55:27;;;;;;;4.60;4.20;;;25.00;99.90;;;;;;5096891;28;20477;-80
2021/06/10 10:57:59;;;;;;;5.00;4.60;;;25.20;99.90;;;;;;5109212;28;20544;-78
2021/06/10 11:00:45;;;;;;;5.13;4.60;;;25.40;99.90;;;;;;5113015;27;20450;-79
2021/06/10 11:03:19;;;;;;;4.70;4.30;;;25.20;99.90;;;;;;5113554;27;20546;-79
2021/06/10 11:05:46;;;;;;;5.43;3.83;;;25.00;99.90;;;;;;5112559;28;20482;-77
2021/06/10 11:08:13;;;;;;;3.93;3.13;;;25.00;99.90;;;;;;5102093;27;20457;-79
2021/06/10 11:10:57;;;;;;;4.10;3.70;;;24.80;99.90;;;;;;5106699;27;20511;-79
2021/06/10 11:13:24;;;;;;;4.53;3.20;;;24.80;99.90;;;;;;5103696;28;20516;-78
2021/06/10 11:15:54;;;;;;;6.10;3.57;;;24.80;99.90;;;;;;5095678;28;20470;-78
2021/06/10 11:18:44;;;;;;;4.20;3.50;;;25.00;99.90;;;;;;5110994;28;20450;-78
2021/06/10 11:21:12;;;;;;;6.20;3.90;;;24.80;99.90;;;;;;5098504;28;20825;-77
2021/06/10 11:23:38;;;;;;;3.87;3.47;;;24.90;99.90;;;;;;5107461;28;20486;-79
2021/06/10 11:26:15;;;;;;;4.07;3.77;;;24.80;99.90;;;;;;5105683;28;20478;-78
2021/06/10 11:28:44;;;;;;;5.27;4.30;;;24.90;99.90;;;;;;5110386;28;20461;-78
2021/06/10 11:31:16;;;;;;;4.27;3.97;;;24.90;99.90;;;;;;5098693;27;21097;-78
2021/06/10 11:33:43;;;;;;;4.37;3.43;;;24.80;99.90;;;;;;5091905;28;20447;-79
2021/06/10 11:36:12;;;;;;;3.60;3.30;;;24.90;99.90;;;;;;5091606;28;20478;-76
2021/06/10 11:38:41;;;;;;;4.23;3.63;;;24.80;99.90;;;;;;5105432;28;20515;-79
2021/06/10 11:41:11;;;;;;;3.80;3.50;;;24.90;99.90;;;;;;5107369;28;20598;-79
2021/06/10 11:43:39;;;;;;;4.10;3.80;;;24.70;99.90;;;;;;5088263;28;20482;-80
2021/06/10 11:46:08;;;;;;;3.20;3.00;;;24.70;99.90;;;;;;5099744;27;20470;-78
2021/06/10 11:48:37;;;;;;;3.00;2.77;;;24.80;99.90;;;;;;5104670;28;20891;-79
2021/06/10 11:51:05;;;;;;;3.30;3.00;;;24.80;99.90;;;;;;5099281;28;20522;-79
2021/06/10 11:53:31;;;;;;;3.43;3.13;;;24.80;99.90;;;;;;5092623;28;20469;-78
2021/06/10 11:55:59;;;;;;;3.83;3.20;;;24.60;99.90;;;;;;5101193;28;20481;-78
2021/06/10 11:58:27;;;;;;;5.00;3.40;;;24.20;99.90;;;;;;5103828;27;20458;-78
2021/06/10 12:00:56;;;;;;;3.83;2.70;;;24.40;99.90;;;;;;5073695;28;20500;-79
2021/06/10 12:03:24;;;;;;;4.47;3.50;;;24.60;99.90;;;;;;5096310;28;20491;-78
2021/06/10 12:05:54;;;;;;;3.30;3.00;;;24.60;99.90;;;;;;5106722;28;20485;-79
2021/06/10 12:08:22;;;;;;;10.83;3.70;;;24.40;99.90;;;;;;5104638;28;20563;-78
2021/06/10 12:10:52;;;;;;;3.50;3.20;;;24.60;99.90;;;;;;5109560;28;20462;-79
2021/06/10 12:13:28;;;;;;;3.50;3.13;;;24.30;99.90;;;;;;5105762;27;20636;-82
2021/06/10 12:15:56;;;;;;;5.73;3.60;;;24.30;99.90;;;;;;5107599;28;20518;-80
2021/06/10 12:18:23;;;;;;;4.60;3.60;;;24.20;99.90;;;;;;5109002;28;20486;-78
2021/06/10 12:20:53;;;;;;;4.67;4.10;;;24.40;99.90;;;;;;5099758;27;20505;-81
2021/06/10 12:23:22;;;;;;;6.67;3.63;;;24.50;99.90;;;;;;5109498;28;20482;-82
2021/06/10 12:25:51;;;;;;;4.83;4.10;;;24.50;99.90;;;;;;5103105;27;20838;-82
2021/06/10 12:28:34;;;;;;;3.53;3.23;;;24.50;99.90;;;;;;5102293;27;20460;-83
2021/06/10 12:31:06;;;;;;;3.40;3.10;;;24.40;99.90;;;;;;5107026;28;20488;-77
2021/06/10 12:33:33;;;;;;;3.63;3.23;;;24.50;99.90;;;;;;5104804;28;20454;-80
2021/06/10 12:36:03;;;;;;;3.10;2.83;;;24.30;99.90;;;;;;5101630;28;20474;-82
2021/06/10 12:38:32;;;;;;;6.20;2.80;;;24.20;99.90;;;;;;5097855;28;20462;-81
2021/06/10 12:41:14;;;;;;;3.20;2.90;;;24.40;99.90;;;;;;5105305;28;20962;-81
2021/06/10 12:43:42;;;;;;;3.07;2.73;;;24.60;99.90;;;;;;5105967;28;20573;-83
2021/06/10 12:46:09;;;;;;;7.20;3.80;;;24.40;99.90;;;;;;5109017;28;20478;-82
2021/06/10 12:48:36;;;;;;;3.17;2.97;;;24.30;99.90;;;;;;5110580;28;20530;-82
2021/06/10 12:51:22;;;;;;;4.13;3.73;;;24.20;99.90;;;;;;5107731;28;21154;-80